KBQP

Morehouse Memorial Airport

Bastrop, Louisiana, USA
METAR KBQP 250115Z AUTO 00000KT 10SM CLR 26/26 A3002 RMK AO2 LTG DSNT N T02600255
Observed Flight Rules
May-25 @ 01:15 UTC (8 minutes ago) Visual Flight Rules
Visibility Clouds
10 miles
  • Clear skies
Temperatures Readings
Current 26°C / 79°F
Dewpoint 26°C / 79°F
Humidity 100%
Altimeter 30.02" Hg
Pressure 1017 hPa
Elevation 51
METAR KBQP 250115Z AUTO 00000KT 10SM CLR 26/26 A3002 RMK AO2 LTG DSNT N T02600255
Observed Flight Rules
May-25 @ 01:15 UTC
(8 minutes ago)
VFR
Clouds
  • Clear skies
Temperature Dewpoint
26°C / 79°F 26°C / 79°F
Humidity Altimeter Pressure
100% 30.02" Hg 1017 hPa